Spabunker 51 — ECNA — position and weather

sailwx.info

Track history (hours):
 
Tides and Currents Weather Stations Pressure Air Temp Water Temp Dewpoint Dewpoint Depression Visibility Wind Speed Wind Dir Waves Ship Positions

Spabunker 51

Last reported at 2017-Aug-17 08:03 UTC. Time now 2017-Aug-17 09:49 UTC.
Position N 36°08' W 005°26'.

Length 84 m; draft 5.8 m.

Type: Tanker. MMSI: 224322240.

Date/timePositionNaut miles runAvg speedWind from/ knotsBaromVisibWave heightAir tempDewpointWater temp
2017-Aug-17 08:03N 36°08' W 005°26'0 2.1
2017-Aug-17 08:00N 36°08' W 005°26'3 0.3
2017-Aug-16 22:22N 36°06' W 005°24'0 0.1
2017-Aug-16 22:00N 36°06' W 005°24'0 0.1
2017-Aug-16 16:37N 36°06' W 005°25'0 0.0
2017-Aug-16 16:06N 36°06' W 005°25'0 0.1
2017-Aug-16 15:58N 36°06' W 005°25'0 0.0
2017-Aug-16 15:21N 36°06' W 005°25'0 0.0
2017-Aug-16 14:28N 36°06' W 005°25'0 0.0
2017-Aug-16 13:57N 36°06' W 005°25'2 0.2
2017-Aug-16 05:10N 36°08' W 005°25'0 0.1
2017-Aug-16 04:27N 36°08' W 005°25'0 0.1
2017-Aug-16 03:59N 36°08' W 005°25'0 0.0
2017-Aug-16 03:23N 36°08' W 005°25'0 0.1
2017-Aug-16 01:41N 36°08' W 005°25'3 1.5
2017-Aug-15 23:53N 36°10' W 005°23'0 0.8
2017-Aug-15 23:28N 36°10' W 005°23'0 0.0
2017-Aug-15 23:00N 36°10' W 005°23'0 0.0
2017-Aug-15 22:30N 36°10' W 005°23'0 0.0
2017-Aug-15 21:57N 36°10' W 005°23'0 0.0
2017-Aug-15 21:30N 36°10' W 005°23'3 0.3
2017-Aug-15 11:53N 36°09' W 005°26'0 0.0
2017-Aug-15 11:14N 36°09' W 005°26'0 0.0
2017-Aug-15 11:00N 36°09' W 005°26'0 0.0
2017-Aug-15 00:42N 36°08' W 005°26'0 0.4
2017-Aug-15 00:11N 36°09' W 005°26'0 0.0
2017-Aug-14 23:58N 36°09' W 005°26'0 0.0
2017-Aug-14 06:40N 36°08' W 005°26'0 0.0
2017-Aug-14 06:30N 36°08' W 005°26'0 0.0
2017-Aug-14 06:00N 36°08' W 005°26'0 0.0
2017-Aug-14 05:31N 36°08' W 005°26'0 0.0
2017-Aug-14 04:59N 36°08' W 005°26'0 0.0
2017-Aug-14 04:30N 36°08' W 005°26'0 0.0
2017-Aug-14 04:00N 36°08' W 005°26'0 0.0
2017-Aug-14 02:36N 36°08' W 005°26'0 0.0
2017-Aug-14 02:27N 36°08' W 005°26'0 0.0
2017-Aug-14 02:00N 36°08' W 005°26'0 0.0
2017-Aug-14 01:18N 36°08' W 005°26'0 0.1
2017-Aug-14 00:59N 36°08' W 005°26'3 0.4
2017-Aug-13 16:31N 36°11' W 005°24'0 0.0
2017-Aug-13 16:10N 36°11' W 005°24'0 0.0
2017-Aug-13 15:11N 36°11' W 005°24'0 0.0
2017-Aug-13 13:57N 36°11' W 005°24'0 0.3
2017-Aug-13 13:20N 36°11' W 005°24'2 4.9
2017-Aug-13 12:52N 36°09' W 005°26'0 1.2
2017-Aug-13 12:30N 36°09' W 005°26'0 0.0
2017-Aug-13 08:16N 36°09' W 005°26'0 0.0
2017-Aug-13 07:59N 36°09' W 005°26'0 0.0
2017-Aug-13 07:10N 36°09' W 005°26'0 0.0
2017-Aug-13 06:53N 36°09' W 005°26'0 0.0
2017-Aug-13 06:30N 36°09' W 005°26'0 0.0
2017-Aug-13 05:54N 36°09' W 005°26'0 0.0
2017-Aug-13 04:26N 36°09' W 005°26'0 0.0
2017-Aug-13 03:55N 36°09' W 005°26'0 0.0
2017-Aug-13 02:38N 36°09' W 005°26'0 0.0
2017-Aug-13 02:11N 36°09' W 005°26'0 0.0
2017-Aug-13 01:56N 36°09' W 005°26'0 0.0
2017-Aug-13 01:30N 36°09' W 005°26'0 0.0
2017-Aug-13 00:58N 36°09' W 005°26'0 0.0
2017-Aug-13 00:30N 36°09' W 005°26'0 0.1
2017-Aug-12 20:03N 36°09' W 005°26'3 3.1
2017-Aug-12 19:12N 36°11' W 005°24'0 0.0
2017-Aug-12 18:54N 36°11' W 005°24'0 0.0
2017-Aug-12 18:29N 36°11' W 005°24'0 0.0
2017-Aug-12 18:00N 36°11' W 005°24'0 0.0
2017-Aug-12 17:31N 36°11' W 005°24'0 0.0
2017-Aug-12 17:00N 36°11' W 005°24'0 0.0
2017-Aug-12 16:30N 36°11' W 005°24'0 0.0
2017-Aug-12 15:59N 36°11' W 005°24'5 0.4
2017-Aug-12 05:22N 36°06' W 005°25'3 0.3
2017-Aug-11 21:05N 36°09' W 005°26'0 3.1
2017-Aug-11 21:00N 36°09' W 005°25'1 1.2
2017-Aug-11 20:16N 36°08' W 005°25'0 0.0
2017-Aug-11 19:42N 36°08' W 005°25'0 0.0
2017-Aug-11 19:19N 36°08' W 005°25'0 0.0
2017-Aug-11 19:00N 36°08' W 005°25'0 0.0
2017-Aug-11 18:30N 36°08' W 005°25'0 0.0
2017-Aug-11 17:50N 36°08' W 005°25'0 0.0
2017-Aug-11 17:30N 36°08' W 005°25'0 0.0
2017-Aug-11 17:00N 36°08' W 005°25'0 0.0
2017-Aug-11 16:30N 36°08' W 005°25'1 1.0
2017-Aug-11 16:00N 36°08' W 005°25'1 0.0
2017-Aug-10 14:28N 36°09' W 005°26'0 0.0
2017-Aug-10 13:58N 36°09' W 005°26'0 0.0
2017-Aug-10 13:30N 36°09' W 005°26'0 0.0
2017-Aug-10 09:39N 36°09' W 005°26'0 0.0
2017-Aug-10 05:25N 36°09' W 005°26'2 5.0
2017-Aug-10 04:56N 36°10' W 005°23'0 0.2
2017-Aug-10 04:30N 36°10' W 005°23'0 0.0
2017-Aug-10 03:59N 36°10' W 005°23'0 0.0
2017-Aug-10 03:02N 36°10' W 005°23'0 0.0
2017-Aug-10 01:40N 36°10' W 005°23'0 0.0
2017-Aug-10 01:18N 36°10' W 005°23'2 2.8
2017-Aug-10 00:42N 36°09' W 005°25'1 4.4
2017-Aug-10 00:30N 36°09' W 005°26'0 0.0
2017-Aug-09 22:04N 36°09' W 005°26'0 0.0
2017-Aug-09 21:52N 36°09' W 005°26'0 0.0
2017-Aug-09 21:10N 36°09' W 005°26'0 0.0
2017-Aug-09 20:49N 36°09' W 005°26'0 0.0
2017-Aug-09 20:28N 36°09' W 005°26'0 0.7
2017-Aug-09 19:59N 36°08' W 005°26'0 0.1
2017-Aug-09 16:14N 36°08' W 005°26'0 0.0
2017-Aug-09 16:00N 36°08' W 005°26'0 0.0
2017-Aug-09 15:17N 36°08' W 005°26'0 0.0
2017-Aug-09 14:59N 36°08' W 005°26'1 1.1
2017-Aug-09 14:24N 36°09' W 005°26'0 0.0
2017-Aug-09 14:00N 36°09' W 005°26'0 0.0
2017-Aug-09 13:29N 36°09' W 005°26'0 0.0
2017-Aug-09 12:53N 36°09' W 005°26'0 0.0
2017-Aug-09 10:48N 36°09' W 005°26'0 0.0
2017-Aug-09 10:29N 36°09' W 005°26'0 0.0
2017-Aug-09 10:00N 36°09' W 005°26'0 0.0
2017-Aug-09 08:26N 36°09' W 005°26'0 0.0
2017-Aug-09 06:47N 36°09' W 005°26'0 0.0
2017-Aug-09 06:30N 36°09' W 005°26'0 0.0
2017-Aug-09 06:00N 36°09' W 005°26'0 0.0
2017-Aug-09 05:29N 36°09' W 005°26'0 0.0
2017-Aug-09 05:00N 36°09' W 005°26'0 0.0
2017-Aug-09 04:30N 36°09' W 005°26'0 0.0
2017-Aug-09 03:58N 36°09' W 005°26'0 0.1
2017-Aug-08 22:42N 36°09' W 005°26'0 2.5
2017-Aug-08 22:30N 36°09' W 005°26'0 0.0
2017-Aug-08 22:00N 36°09' W 005°26'0 0.0
2017-Aug-08 21:31N 36°09' W 005°26'0 0.0
2017-Aug-08 21:00N 36°09' W 005°26'0 0.0
2017-Aug-08 20:29N 36°09' W 005°26'0 0.0
2017-Aug-08 18:34N 36°09' W 005°26'0 0.1
2017-Aug-08 18:29N 36°09' W 005°26'0 0.0
2017-Aug-08 18:00N 36°09' W 005°26'0 0.0
2017-Aug-08 17:30N 36°09' W 005°26'0 0.0
2017-Aug-08 17:00N 36°09' W 005°26'0 0.0
2017-Aug-08 16:31N 36°09' W 005°26'0 0.0
2017-Aug-08 16:00N 36°09' W 005°26'0 0.0
2017-Aug-08 15:31N 36°09' W 005°26'0 0.6
2017-Aug-08 15:00N 36°09' W 005°26'0 0.0
2017-Aug-08 14:30N 36°09' W 005°26'0 0.0
2017-Aug-08 14:00N 36°09' W 005°26'0 0.0
2017-Aug-08 13:30N 36°09' W 005°26'0 0.0
2017-Aug-08 13:00N 36°09' W 005°26'0 0.0
2017-Aug-08 12:30N 36°09' W 005°26'0 0.0
2017-Aug-08 12:00N 36°09' W 005°26'0 0.0
2017-Aug-08 11:30N 36°09' W 005°26'0 0.0
2017-Aug-08 11:00N 36°09' W 005°26'0 0.0
2017-Aug-08 10:30N 36°09' W 005°26'0 0.0
2017-Aug-08 10:00N 36°09' W 005°26'0 0.0
2017-Aug-08 09:31N 36°09' W 005°26'0 0.0
2017-Aug-08 09:00N 36°09' W 005°26'0 0.0
2017-Aug-08 08:30N 36°09' W 005°26'0 0.0
2017-Aug-08 08:01N 36°09' W 005°26'0 0.0
2017-Aug-08 07:30N 36°09' W 005°26'0 0.6
2017-Aug-08 07:00N 36°09' W 005°26'0 0.0
2017-Aug-08 06:14N 36°09' W 005°26'0 0.0
2017-Aug-08 06:00N 36°09' W 005°26'0 0.0
2017-Aug-08 05:31N 36°09' W 005°26'0 0.0
2017-Aug-08 04:59N 36°09' W 005°26'0 0.0
2017-Aug-08 04:30N 36°09' W 005°26'0 0.0
2017-Aug-08 04:01N 36°09' W 005°26'0 0.0
2017-Aug-08 03:31N 36°09' W 005°26'0 0.0
2017-Aug-08 03:00N 36°09' W 005°26'0 0.0
2017-Aug-08 02:30N 36°09' W 005°26'0 0.0
2017-Aug-08 02:00N 36°09' W 005°26'0 0.0
2017-Aug-08 01:30N 36°09' W 005°26'0 0.0
2017-Aug-08 01:00N 36°09' W 005°26'0 0.0
2017-Aug-08 00:30N 36°09' W 005°26'0 0.0
2017-Aug-07 23:57N 36°09' W 005°26'0 0.0
2017-Aug-07 23:30N 36°09' W 005°26'0 0.0
2017-Aug-07 23:00N 36°09' W 005°26'0 0.0
2017-Aug-07 22:22N 36°09' W 005°26'0 0.0
2017-Aug-07 21:56N 36°09' W 005°26'0 0.0
2017-Aug-07 21:30N 36°09' W 005°26'0 0.0
2017-Aug-07 20:54N 36°09' W 005°26'0 0.0
2017-Aug-07 20:28N 36°09' W 005°26'0 0.0
2017-Aug-07 20:00N 36°09' W 005°26'0 0.0
2017-Aug-07 19:00N 36°09' W 005°26'0 0.0
2017-Aug-07 18:30N 36°09' W 005°26'0 0.0
2017-Aug-07 17:58N 36°09' W 005°26'0 0.0
2017-Aug-07 17:29N 36°09' W 005°26'0 0.0
2017-Aug-07 17:00N 36°09' W 005°26'0 0.0
2017-Aug-07 16:31N 36°09' W 005°26'0 0.0
2017-Aug-07 16:00N 36°09' W 005°26'0 0.0
2017-Aug-07 15:30N 36°09' W 005°26'0 0.0
2017-Aug-07 14:49N 36°09' W 005°26'  
Track history (hours):
 
Tides and Currents Weather Stations Pressure Air Temp Water Temp Dewpoint Dewpoint Depression Visibility Wind Speed Wind Dir Waves Ship Positions

Spabunker 51

Last reported at 2017-Aug-17 08:03 UTC. Time now 2017-Aug-17 09:49 UTC.
Position N 36°08' W 005°26'.

Length 84 m; draft 5.8 m.

Type: Tanker. MMSI: 224322240.

Date/timePositionNaut miles runAvg speedWind from/ knotsBaromVisibWave heightAir tempDewpointWater temp
2017-Aug-17 08:03N 36°08' W 005°26'0 2.1
2017-Aug-17 08:00N 36°08' W 005°26'3 0.3
2017-Aug-16 22:22N 36°06' W 005°24'0 0.1
2017-Aug-16 22:00N 36°06' W 005°24'0 0.1
2017-Aug-16 16:37N 36°06' W 005°25'0 0.0
2017-Aug-16 16:06N 36°06' W 005°25'0 0.1
2017-Aug-16 15:58N 36°06' W 005°25'0 0.0
2017-Aug-16 15:21N 36°06' W 005°25'0 0.0
2017-Aug-16 14:28N 36°06' W 005°25'0 0.0
2017-Aug-16 13:57N 36°06' W 005°25'2 0.2
2017-Aug-16 05:10N 36°08' W 005°25'0 0.1
2017-Aug-16 04:27N 36°08' W 005°25'0 0.1
2017-Aug-16 03:59N 36°08' W 005°25'0 0.0
2017-Aug-16 03:23N 36°08' W 005°25'0 0.1
2017-Aug-16 01:41N 36°08' W 005°25'3 1.5
2017-Aug-15 23:53N 36°10' W 005°23'0 0.8
2017-Aug-15 23:28N 36°10' W 005°23'0 0.0
2017-Aug-15 23:00N 36°10' W 005°23'0 0.0
2017-Aug-15 22:30N 36°10' W 005°23'0 0.0
2017-Aug-15 21:57N 36°10' W 005°23'0 0.0
2017-Aug-15 21:30N 36°10' W 005°23'3 0.3
2017-Aug-15 11:53N 36°09' W 005°26'0 0.0
2017-Aug-15 11:14N 36°09' W 005°26'0 0.0
2017-Aug-15 11:00N 36°09' W 005°26'0 0.0
2017-Aug-15 00:42N 36°08' W 005°26'0 0.4
2017-Aug-15 00:11N 36°09' W 005°26'0 0.0
2017-Aug-14 23:58N 36°09' W 005°26'0 0.0
2017-Aug-14 06:40N 36°08' W 005°26'0 0.0
2017-Aug-14 06:30N 36°08' W 005°26'0 0.0
2017-Aug-14 06:00N 36°08' W 005°26'0 0.0
2017-Aug-14 05:31N 36°08' W 005°26'0 0.0
2017-Aug-14 04:59N 36°08' W 005°26'0 0.0
2017-Aug-14 04:30N 36°08' W 005°26'0 0.0
2017-Aug-14 04:00N 36°08' W 005°26'0 0.0
2017-Aug-14 02:36N 36°08' W 005°26'0 0.0
2017-Aug-14 02:27N 36°08' W 005°26'0 0.0
2017-Aug-14 02:00N 36°08' W 005°26'0 0.0
2017-Aug-14 01:18N 36°08' W 005°26'0 0.1
2017-Aug-14 00:59N 36°08' W 005°26'3 0.4
2017-Aug-13 16:31N 36°11' W 005°24'0 0.0
2017-Aug-13 16:10N 36°11' W 005°24'0 0.0
2017-Aug-13 15:11N 36°11' W 005°24'0 0.0
2017-Aug-13 13:57N 36°11' W 005°24'0 0.3
2017-Aug-13 13:20N 36°11' W 005°24'2 4.9
2017-Aug-13 12:52N 36°09' W 005°26'0 1.2
2017-Aug-13 12:30N 36°09' W 005°26'0 0.0
2017-Aug-13 08:16N 36°09' W 005°26'0 0.0
2017-Aug-13 07:59N 36°09' W 005°26'0 0.0
2017-Aug-13 07:10N 36°09' W 005°26'0 0.0
2017-Aug-13 06:53N 36°09' W 005°26'0 0.0
2017-Aug-13 06:30N 36°09' W 005°26'0 0.0
2017-Aug-13 05:54N 36°09' W 005°26'0 0.0
2017-Aug-13 04:26N 36°09' W 005°26'0 0.0
2017-Aug-13 03:55N 36°09' W 005°26'0 0.0
2017-Aug-13 02:38N 36°09' W 005°26'0 0.0
2017-Aug-13 02:11N 36°09' W 005°26'0 0.0
2017-Aug-13 01:56N 36°09' W 005°26'0 0.0
2017-Aug-13 01:30N 36°09' W 005°26'0 0.0
2017-Aug-13 00:58N 36°09' W 005°26'0 0.0
2017-Aug-13 00:30N 36°09' W 005°26'0 0.1
2017-Aug-12 20:03N 36°09' W 005°26'3 3.1
2017-Aug-12 19:12N 36°11' W 005°24'0 0.0
2017-Aug-12 18:54N 36°11' W 005°24'0 0.0
2017-Aug-12 18:29N 36°11' W 005°24'0 0.0
2017-Aug-12 18:00N 36°11' W 005°24'0 0.0
2017-Aug-12 17:31N 36°11' W 005°24'0 0.0
2017-Aug-12 17:00N 36°11' W 005°24'0 0.0
2017-Aug-12 16:30N 36°11' W 005°24'0 0.0
2017-Aug-12 15:59N 36°11' W 005°24'5 0.4
2017-Aug-12 05:22N 36°06' W 005°25'3 0.3
2017-Aug-11 21:05N 36°09' W 005°26'0 3.1
2017-Aug-11 21:00N 36°09' W 005°25'1 1.2
2017-Aug-11 20:16N 36°08' W 005°25'0 0.0
2017-Aug-11 19:42N 36°08' W 005°25'0 0.0
2017-Aug-11 19:19N 36°08' W 005°25'0 0.0
2017-Aug-11 19:00N 36°08' W 005°25'0 0.0
2017-Aug-11 18:30N 36°08' W 005°25'0 0.0
2017-Aug-11 17:50N 36°08' W 005°25'0 0.0
2017-Aug-11 17:30N 36°08' W 005°25'0 0.0
2017-Aug-11 17:00N 36°08' W 005°25'0 0.0
2017-Aug-11 16:30N 36°08' W 005°25'1 1.0
2017-Aug-11 16:00N 36°08' W 005°25'1 0.0
2017-Aug-10 14:28N 36°09' W 005°26'0 0.0
2017-Aug-10 13:58N 36°09' W 005°26'0 0.0
2017-Aug-10 13:30N 36°09' W 005°26'0 0.0
2017-Aug-10 09:39N 36°09' W 005°26'0 0.0
2017-Aug-10 05:25N 36°09' W 005°26'2 5.0
2017-Aug-10 04:56N 36°10' W 005°23'0 0.2
2017-Aug-10 04:30N 36°10' W 005°23'0 0.0
2017-Aug-10 03:59N 36°10' W 005°23'0 0.0
2017-Aug-10 03:02N 36°10' W 005°23'0 0.0
2017-Aug-10 01:40N 36°10' W 005°23'0 0.0
2017-Aug-10 01:18N 36°10' W 005°23'2 2.8
2017-Aug-10 00:42N 36°09' W 005°25'1 4.4
2017-Aug-10 00:30N 36°09' W 005°26'0 0.0
2017-Aug-09 22:04N 36°09' W 005°26'0 0.0
2017-Aug-09 21:52N 36°09' W 005°26'0 0.0
2017-Aug-09 21:10N 36°09' W 005°26'0 0.0
2017-Aug-09 20:49N 36°09' W 005°26'0 0.0
2017-Aug-09 20:28N 36°09' W 005°26'0 0.7
2017-Aug-09 19:59N 36°08' W 005°26'0 0.1
2017-Aug-09 16:14N 36°08' W 005°26'0 0.0
2017-Aug-09 16:00N 36°08' W 005°26'0 0.0
2017-Aug-09 15:17N 36°08' W 005°26'0 0.0
2017-Aug-09 14:59N 36°08' W 005°26'1 1.1
2017-Aug-09 14:24N 36°09' W 005°26'0 0.0
2017-Aug-09 14:00N 36°09' W 005°26'0 0.0
2017-Aug-09 13:29N 36°09' W 005°26'0 0.0
2017-Aug-09 12:53N 36°09' W 005°26'0 0.0
2017-Aug-09 10:48N 36°09' W 005°26'0 0.0
2017-Aug-09 10:29N 36°09' W 005°26'0 0.0
2017-Aug-09 10:00N 36°09' W 005°26'0 0.0
2017-Aug-09 08:26N 36°09' W 005°26'0 0.0
2017-Aug-09 06:47N 36°09' W 005°26'0 0.0
2017-Aug-09 06:30N 36°09' W 005°26'0 0.0
2017-Aug-09 06:00N 36°09' W 005°26'0 0.0
2017-Aug-09 05:29N 36°09' W 005°26'0 0.0
2017-Aug-09 05:00N 36°09' W 005°26'0 0.0
2017-Aug-09 04:30N 36°09' W 005°26'0 0.0
2017-Aug-09 03:58N 36°09' W 005°26'0 0.1
2017-Aug-08 22:42N 36°09' W 005°26'0 2.5
2017-Aug-08 22:30N 36°09' W 005°26'0 0.0
2017-Aug-08 22:00N 36°09' W 005°26'0 0.0
2017-Aug-08 21:31N 36°09' W 005°26'0 0.0
2017-Aug-08 21:00N 36°09' W 005°26'0 0.0
2017-Aug-08 20:29N 36°09' W 005°26'0 0.0
2017-Aug-08 18:34N 36°09' W 005°26'0 0.1
2017-Aug-08 18:29N 36°09' W 005°26'0 0.0
2017-Aug-08 18:00N 36°09' W 005°26'0 0.0
2017-Aug-08 17:30N 36°09' W 005°26'0 0.0
2017-Aug-08 17:00N 36°09' W 005°26'0 0.0
2017-Aug-08 16:31N 36°09' W 005°26'0 0.0
2017-Aug-08 16:00N 36°09' W 005°26'0 0.0
2017-Aug-08 15:31N 36°09' W 005°26'0 0.6
2017-Aug-08 15:00N 36°09' W 005°26'0 0.0
2017-Aug-08 14:30N 36°09' W 005°26'0 0.0
2017-Aug-08 14:00N 36°09' W 005°26'0 0.0
2017-Aug-08 13:30N 36°09' W 005°26'0 0.0
2017-Aug-08 13:00N 36°09' W 005°26'0 0.0
2017-Aug-08 12:30N 36°09' W 005°26'0 0.0
2017-Aug-08 12:00N 36°09' W 005°26'0 0.0
2017-Aug-08 11:30N 36°09' W 005°26'0 0.0
2017-Aug-08 11:00N 36°09' W 005°26'0 0.0
2017-Aug-08 10:30N 36°09' W 005°26'0 0.0
2017-Aug-08 10:00N 36°09' W 005°26'0 0.0
2017-Aug-08 09:31N 36°09' W 005°26'0 0.0
2017-Aug-08 09:00N 36°09' W 005°26'0 0.0
2017-Aug-08 08:30N 36°09' W 005°26'0 0.0
2017-Aug-08 08:01N 36°09' W 005°26'0 0.0
2017-Aug-08 07:30N 36°09' W 005°26'0 0.6
2017-Aug-08 07:00N 36°09' W 005°26'0 0.0
2017-Aug-08 06:14N 36°09' W 005°26'0 0.0
2017-Aug-08 06:00N 36°09' W 005°26'0 0.0
2017-Aug-08 05:31N 36°09' W 005°26'0 0.0
2017-Aug-08 04:59N 36°09' W 005°26'0 0.0
2017-Aug-08 04:30N 36°09' W 005°26'0 0.0
2017-Aug-08 04:01N 36°09' W 005°26'0 0.0
2017-Aug-08 03:31N 36°09' W 005°26'0 0.0
2017-Aug-08 03:00N 36°09' W 005°26'0 0.0
2017-Aug-08 02:30N 36°09' W 005°26'0 0.0
2017-Aug-08 02:00N 36°09' W 005°26'0 0.0
2017-Aug-08 01:30N 36°09' W 005°26'0 0.0
2017-Aug-08 01:00N 36°09' W 005°26'0 0.0
2017-Aug-08 00:30N 36°09' W 005°26'0 0.0
2017-Aug-07 23:57N 36°09' W 005°26'0 0.0
2017-Aug-07 23:30N 36°09' W 005°26'0 0.0
2017-Aug-07 23:00N 36°09' W 005°26'0 0.0
2017-Aug-07 22:22N 36°09' W 005°26'0 0.0
2017-Aug-07 21:56N 36°09' W 005°26'0 0.0
2017-Aug-07 21:30N 36°09' W 005°26'0 0.0
2017-Aug-07 20:54N 36°09' W 005°26'0 0.0
2017-Aug-07 20:28N 36°09' W 005°26'0 0.0
2017-Aug-07 20:00N 36°09' W 005°26'0 0.0
2017-Aug-07 19:00N 36°09' W 005°26'0 0.0
2017-Aug-07 18:30N 36°09' W 005°26'0 0.0
2017-Aug-07 17:58N 36°09' W 005°26'0 0.0
2017-Aug-07 17:29N 36°09' W 005°26'0 0.0
2017-Aug-07 17:00N 36°09' W 005°26'0 0.0
2017-Aug-07 16:31N 36°09' W 005°26'0 0.0
2017-Aug-07 16:00N 36°09' W 005°26'0 0.0
2017-Aug-07 15:30N 36°09' W 005°26'0 0.0
2017-Aug-07 14:49N 36°09' W 005°26'  

Dump ship's entire track history